createdAt,value
2022-11-30T00:01:16.250Z,8.85
2022-11-30T00:03:23.334Z,10.18
2022-11-30T00:05:30.975Z,10.02
2022-11-30T00:07:38.391Z,10.85
2022-11-30T00:09:46.667Z,11.75
2022-11-30T00:11:53.490Z,13.85
2022-11-30T00:14:00.929Z,16.52
2022-11-30T00:16:08.110Z,16.40
2022-11-30T00:18:18.875Z,16.55
2022-11-30T00:20:25.697Z,13.82
2022-11-30T00:22:32.829Z,12.55
2022-11-30T00:24:39.752Z,12.90
2022-11-30T00:26:46.883Z,13.25
2022-11-30T00:28:54.171Z,13.07
2022-11-30T00:31:02.137Z,11.35
2022-11-30T00:33:09.043Z,12.00
2022-11-30T00:35:18.836Z,12.98
2022-11-30T00:37:26.427Z,12.88
2022-11-30T00:39:35.565Z,12.75
2022-11-30T00:41:42.992Z,12.50
2022-11-30T00:43:49.919Z,13.85
2022-11-30T00:45:57.250Z,12.93
2022-11-30T00:48:04.229Z,13.98
2022-11-30T00:50:12.383Z,13.50
2022-11-30T00:52:20.947Z,13.38
2022-11-30T00:54:28.135Z,13.98
2022-11-30T00:56:34.852Z,14.45
2022-11-30T00:58:42.338Z,13.75
2022-11-30T01:00:49.369Z,14.25
2022-11-30T01:02:58.188Z,14.35
2022-11-30T01:05:05.062Z,14.40
2022-11-30T01:07:12.350Z,14.88
2022-11-30T01:09:20.961Z,14.07
2022-11-30T01:11:29.985Z,13.77
2022-11-30T01:13:37.585Z,15.20
2022-11-30T01:15:46.447Z,14.82
2022-11-30T01:17:53.323Z,14.00
2022-11-30T01:20:00.153Z,15.90
2022-11-30T01:22:07.481Z,15.88
2022-11-30T01:24:14.407Z,15.43
2022-11-30T01:26:23.639Z,15.85
2022-11-30T01:28:30.613Z,15.63
2022-11-30T01:30:37.835Z,16.33
2022-11-30T01:32:44.719Z,15.20
2022-11-30T01:34:51.799Z,14.60
2022-11-30T01:36:58.572Z,14.60
2022-11-30T01:39:05.702Z,13.77
2022-11-30T01:41:14.062Z,14.82
2022-11-30T01:43:23.496Z,15.43
2022-11-30T01:45:30.574Z,14.20
2022-11-30T01:47:40.317Z,14.43
2022-11-30T01:49:50.263Z,13.68
2022-11-30T01:52:01.849Z,14.05
2022-11-30T01:54:11.589Z,14.23
2022-11-30T01:56:19.245Z,12.65
2022-11-30T01:58:33.430Z,12.90
2022-11-30T02:00:40.457Z,11.73
2022-11-30T02:02:57.108Z,11.75
2022-11-30T02:05:04.649Z,12.85
2022-11-30T02:07:13.711Z,11.98
2022-11-30T02:09:22.442Z,11.32
2022-11-30T02:11:31.214Z,11.15
2022-11-30T02:14:00.066Z,10.88
2022-11-30T02:16:15.410Z,11.23
2022-11-30T02:18:27.625Z,11.13
2022-11-30T02:21:08.138Z,11.52
2022-11-30T02:23:47.064Z,9.80
2022-11-30T02:26:04.535Z,10.15
2022-11-30T02:28:38.035Z,9.90
2022-11-30T02:30:53.547Z,9.73
2022-11-30T02:33:03.508Z,8.60
2022-11-30T02:35:13.712Z,8.60
2022-11-30T02:37:21.662Z,8.70
2022-11-30T02:39:28.842Z,7.72
2022-11-30T02:41:40.478Z,6.93
2022-11-30T02:43:48.018Z,7.63
2022-11-30T02:46:03.534Z,6.70
2022-11-30T02:48:13.390Z,7.38
2022-11-30T02:50:25.837Z,7.15
2022-11-30T02:52:34.921Z,6.60
2022-11-30T02:54:42.574Z,6.78
2022-11-30T02:56:50.002Z,6.47
2022-11-30T02:58:56.876Z,6.47
2022-11-30T03:01:05.775Z,5.90
2022-11-30T03:03:12.620Z,6.15
2022-11-30T03:05:20.071Z,5.90
2022-11-30T03:07:27.071Z,5.78
2022-11-30T03:09:34.167Z,5.75
2022-11-30T03:11:40.886Z,5.82
2022-11-30T03:13:47.967Z,5.80
2022-11-30T03:15:55.012Z,5.35
2022-11-30T03:18:05.401Z,5.00
2022-11-30T03:20:13.404Z,5.95
2022-11-30T03:22:20.946Z,5.88
2022-11-30T03:24:27.817Z,5.65
2022-11-30T03:26:34.999Z,5.80
2022-11-30T03:28:41.976Z,5.85
2022-11-30T03:30:52.950Z,5.80
2022-11-30T03:33:00.386Z,5.68
2022-11-30T03:35:09.818Z,5.38
2022-11-30T03:37:16.642Z,5.70
2022-11-30T03:39:24.592Z,5.35
2022-11-30T03:41:33.053Z,5.40
2022-11-30T03:43:40.387Z,4.97
2022-11-30T03:45:49.465Z,5.07
2022-11-30T03:47:56.647Z,4.38
2022-11-30T03:50:03.470Z,4.50
2022-11-30T03:52:12.340Z,4.50
2022-11-30T03:54:19.215Z,4.10
2022-11-30T03:56:27.573Z,4.13
2022-11-30T03:58:34.602Z,4.15
2022-11-30T04:00:42.089Z,4.28
2022-11-30T04:02:48.989Z,4.15
2022-11-30T04:04:56.250Z,4.80
2022-11-30T04:07:03.230Z,4.78
2022-11-30T04:09:13.274Z,4.68
2022-11-30T04:11:20.872Z,5.28
2022-11-30T04:13:29.173Z,5.30
2022-11-30T04:15:35.944Z,5.32
2022-11-30T04:17:43.335Z,5.40
2022-11-30T04:19:50.103Z,5.63
2022-11-30T04:21:57.237Z,5.50
2022-11-30T04:24:04.313Z,5.10
2022-11-30T04:26:17.230Z,5.40
2022-11-30T04:28:24.156Z,5.50
2022-11-30T04:30:31.234Z,5.22
2022-11-30T04:32:38.056Z,5.53
2022-11-30T04:34:45.453Z,4.80
2022-11-30T04:36:56.042Z,5.47
2022-11-30T04:39:07.235Z,4.65
2022-11-30T04:41:15.844Z,5.05
2022-11-30T04:43:23.540Z,4.95
2022-11-30T04:45:35.197Z,4.32
2022-11-30T04:47:43.074Z,5.07
2022-11-30T04:49:50.820Z,4.75
2022-11-30T04:51:57.641Z,5.22
2022-11-30T04:54:04.823Z,4.80
2022-11-30T04:56:12.618Z,5.18
2022-11-30T04:58:21.542Z,4.30
2022-11-30T05:00:28.569Z,4.68
2022-11-30T05:02:35.444Z,4.22
2022-11-30T05:04:42.651Z,4.60
2022-11-30T05:06:49.534Z,4.60
2022-11-30T05:08:56.732Z,4.85
2022-11-30T05:11:03.560Z,4.40
2022-11-30T05:13:10.686Z,4.43
2022-11-30T05:15:19.665Z,4.53
2022-11-30T05:17:27.251Z,4.15
2022-11-30T05:19:34.025Z,4.55
2022-11-30T05:21:45.446Z,4.38
2022-11-30T05:23:53.410Z,4.90
2022-11-30T05:26:01.406Z,4.63
2022-11-30T05:28:08.490Z,4.40
2022-11-30T05:30:18.228Z,4.28
2022-11-30T05:32:25.202Z,4.43
2022-11-30T05:34:41.280Z,4.07
2022-11-30T05:36:56.819Z,4.47
2022-11-30T05:39:03.796Z,5.30
2022-11-30T05:41:10.570Z,4.90
2022-11-30T05:43:18.006Z,4.82
2022-11-30T05:45:27.286Z,5.20
2022-11-30T05:47:34.059Z,4.47
2022-11-30T05:49:41.243Z,4.30
2022-11-30T05:51:48.424Z,4.63
2022-11-30T05:53:55.603Z,4.63
2022-11-30T05:56:06.627Z,4.18
2022-11-30T05:58:13.553Z,4.32
2022-11-30T06:00:22.424Z,4.20
2022-11-30T06:02:31.189Z,4.60
2022-11-30T06:04:38.711Z,4.13
2022-11-30T06:06:46.888Z,4.43
2022-11-30T06:08:54.219Z,4.10
2022-11-30T06:11:04.578Z,4.20
2022-11-30T06:13:12.424Z,3.92
2022-11-30T06:15:19.919Z,4.03
2022-11-30T06:17:26.788Z,4.70
2022-11-30T06:19:35.713Z,4.00
2022-11-30T06:21:43.249Z,4.10
2022-11-30T06:23:50.379Z,4.53
2022-11-30T06:25:57.203Z,4.85
2022-11-30T06:28:04.643Z,4.47
2022-11-30T06:30:12.645Z,4.22
2022-11-30T06:32:19.721Z,4.30
2022-11-30T06:34:26.749Z,4.15
2022-11-30T06:36:36.526Z,3.70
2022-11-30T06:38:43.569Z,4.65
2022-11-30T06:40:50.699Z,3.90
2022-11-30T06:42:57.778Z,3.78
2022-11-30T06:45:04.962Z,3.85
2022-11-30T06:47:11.833Z,3.45
2022-11-30T06:49:18.965Z,3.67
2022-11-30T06:51:25.685Z,3.95
2022-11-30T06:53:34.660Z,3.55
2022-11-30T06:55:41.379Z,3.75
2022-11-30T06:57:48.818Z,3.67
2022-11-30T06:59:55.594Z,3.42
2022-11-30T07:02:08.107Z,3.47
2022-11-30T07:04:16.643Z,3.97
2022-11-30T07:06:23.944Z,3.65
2022-11-30T07:08:30.664Z,3.45
2022-11-30T07:10:43.786Z,3.90
2022-11-30T07:12:53.424Z,4.22
2022-11-30T07:15:00.660Z,4.05
2022-11-30T07:17:07.584Z,3.80
2022-11-30T07:19:14.713Z,3.95
2022-11-30T07:21:21.536Z,3.45
2022-11-30T07:23:45.310Z,3.90
2022-11-30T07:26:13.331Z,3.70
2022-11-30T07:28:20.620Z,4.10
2022-11-30T07:30:27.882Z,4.47
2022-11-30T07:32:35.237Z,4.80
2022-11-30T07:34:42.363Z,5.57
2022-11-30T07:36:49.753Z,4.82
2022-11-30T07:38:56.680Z,4.40
2022-11-30T07:41:05.853Z,4.30
2022-11-30T07:43:12.931Z,4.15
2022-11-30T07:45:20.269Z,4.10
2022-11-30T07:47:27.245Z,4.55
2022-11-30T07:49:34.590Z,4.10
2022-11-30T07:51:41.509Z,4.00
2022-11-30T07:53:48.793Z,4.45
2022-11-30T07:55:56.956Z,4.45
2022-11-30T07:58:05.969Z,4.20
2022-11-30T08:00:13.969Z,4.32
2022-11-30T08:02:21.270Z,4.10
2022-11-30T08:04:28.281Z,3.53
2022-11-30T08:06:35.883Z,3.97
2022-11-30T08:08:44.280Z,4.20
2022-11-30T08:10:51.823Z,3.88
2022-11-30T08:12:59.011Z,3.80
2022-11-30T08:15:19.900Z,3.70
2022-11-30T08:17:27.654Z,3.85
2022-11-30T08:19:35.040Z,3.90
2022-11-30T08:21:41.965Z,3.75
2022-11-30T08:23:50.832Z,3.97
2022-11-30T08:25:57.867Z,3.58
2022-11-30T08:28:05.452Z,3.65
2022-11-30T08:30:14.893Z,3.38
2022-11-30T08:32:22.636Z,3.70
2022-11-30T08:34:29.663Z,3.45
2022-11-30T08:36:37.460Z,3.72
2022-11-30T08:38:45.972Z,3.70
2022-11-30T08:40:53.253Z,3.47
2022-11-30T08:43:02.074Z,3.28
2022-11-30T08:45:10.176Z,3.83
2022-11-30T08:47:18.977Z,3.78
2022-11-30T08:49:26.850Z,3.55
2022-11-30T08:51:53.787Z,3.47
2022-11-30T08:54:01.431Z,3.60
2022-11-30T08:56:11.545Z,3.92
2022-11-30T08:58:18.974Z,3.80
2022-11-30T09:00:26.103Z,3.38
2022-11-30T09:02:35.024Z,3.65
2022-11-30T09:04:42.107Z,3.45
2022-11-30T09:06:49.079Z,3.55
2022-11-30T09:08:58.212Z,3.28
2022-11-30T09:11:12.554Z,2.83
2022-11-30T09:13:19.838Z,3.25
2022-11-30T09:15:26.764Z,3.00
2022-11-30T09:17:36.049Z,3.22
2022-11-30T09:19:43.134Z,3.40
2022-11-30T09:21:52.241Z,3.08
2022-11-30T09:23:59.793Z,3.08
2022-11-30T09:26:09.385Z,2.97
2022-11-30T09:28:16.409Z,3.15
2022-11-30T09:30:23.845Z,3.78
2022-11-30T09:32:31.644Z,4.13
2022-11-30T09:34:40.614Z,4.32
2022-11-30T09:36:47.751Z,3.33
2022-11-30T09:38:55.344Z,3.58
2022-11-30T09:41:03.901Z,2.97
2022-11-30T09:43:21.376Z,2.60
2022-11-30T09:45:33.625Z,3.20
2022-11-30T09:48:06.362Z,3.10
2022-11-30T09:50:19.399Z,3.20
2022-11-30T09:52:31.901Z,3.45
2022-11-30T09:54:41.928Z,3.17
2022-11-30T09:56:49.472Z,3.15
2022-11-30T09:59:01.062Z,3.08
2022-11-30T10:01:09.671Z,3.17
2022-11-30T10:03:17.702Z,2.67
2022-11-30T10:05:29.463Z,2.97
2022-11-30T10:07:56.833Z,4.13
2022-11-30T10:12:45.693Z,6.63
2022-11-30T10:15:14.586Z,6.60
2022-11-30T10:17:31.237Z,7.07
2022-11-30T10:19:58.742Z,5.40
2022-11-30T10:22:20.522Z,5.45
2022-11-30T10:24:39.308Z,5.93
2022-11-30T10:26:56.178Z,6.43
2022-11-30T10:29:10.944Z,7.28
2022-11-30T10:31:19.442Z,6.60
2022-11-30T10:33:35.312Z,6.63
2022-11-30T10:35:48.564Z,6.28
2022-11-30T10:37:58.654Z,5.57
2022-11-30T10:40:09.224Z,5.30
2022-11-30T10:42:21.167Z,4.90
2022-11-30T10:44:32.037Z,4.97
2022-11-30T10:46:42.101Z,5.85
2022-11-30T10:48:55.322Z,5.45
2022-11-30T10:51:04.078Z,5.40
2022-11-30T10:53:15.304Z,5.28
2022-11-30T10:55:24.582Z,5.90
2022-11-30T10:57:34.780Z,5.53
2022-11-30T10:59:46.710Z,5.85
2022-11-30T11:01:55.045Z,5.57
2022-11-30T11:04:13.123Z,5.63
2022-11-30T11:06:25.596Z,5.55
2022-11-30T11:08:34.421Z,7.15
2022-11-30T11:10:50.951Z,9.80
2022-11-30T11:12:58.906Z,10.23
2022-11-30T11:15:17.198Z,8.52
2022-11-30T11:17:27.953Z,12.48
2022-11-30T11:19:43.990Z,12.43
2022-11-30T11:21:53.629Z,9.77
2022-11-30T11:24:03.075Z,10.02
2022-11-30T11:26:11.841Z,8.95
2022-11-30T11:28:21.376Z,8.88
2022-11-30T11:30:34.597Z,9.35
2022-11-30T11:32:42.395Z,9.07
2022-11-30T11:34:51.388Z,9.15
2022-11-30T11:37:10.537Z,8.05
2022-11-30T11:39:30.572Z,7.70
2022-11-30T11:41:40.821Z,8.13
2022-11-30T11:44:04.487Z,8.02
2022-11-30T11:46:16.507Z,8.15
2022-11-30T11:48:42.664Z,8.05
2022-11-30T11:51:07.074Z,7.93
2022-11-30T11:53:26.178Z,8.25
2022-11-30T11:55:34.870Z,8.45
2022-11-30T11:57:47.899Z,8.70
2022-11-30T12:00:00.359Z,10.05
2022-11-30T12:02:24.288Z,11.10
2022-11-30T12:04:43.957Z,9.63
2022-11-30T12:06:54.713Z,10.70
2022-11-30T12:09:05.987Z,10.25
2022-11-30T12:11:21.262Z,11.13
2022-11-30T12:13:32.228Z,11.15
2022-11-30T12:15:54.145Z,13.65
2022-11-30T12:18:17.110Z,13.60
2022-11-30T12:20:51.072Z,13.40
2022-11-30T12:23:22.825Z,12.05
2022-11-30T12:25:33.398Z,13.10
2022-11-30T12:27:53.839Z,12.20
2022-11-30T12:30:10.943Z,11.98
2022-11-30T12:32:31.795Z,10.73
2022-11-30T12:34:54.134Z,11.37
2022-11-30T12:37:07.563Z,10.75
2022-11-30T12:39:24.566Z,11.20
2022-11-30T12:41:39.691Z,10.38
2022-11-30T12:43:57.009Z,8.95
2022-11-30T12:46:12.921Z,10.20
2022-11-30T12:48:31.443Z,9.85
2022-11-30T12:50:51.529Z,9.65
2022-11-30T12:53:06.590Z,9.40
2022-11-30T12:55:25.964Z,9.98
2022-11-30T12:57:38.014Z,9.57
2022-11-30T12:59:55.267Z,9.82
2022-11-30T13:02:23.876Z,9.82
2022-11-30T13:04:34.225Z,9.35
2022-11-30T13:06:45.748Z,9.43
2022-11-30T13:09:01.584Z,9.32
2022-11-30T13:11:15.779Z,9.50
2022-11-30T13:13:26.803Z,9.55
2022-11-30T13:15:38.125Z,9.43
2022-11-30T13:17:45.720Z,10.65
2022-11-30T13:20:00.625Z,10.43
2022-11-30T13:22:15.746Z,10.80
2022-11-30T13:24:30.252Z,10.93
2022-11-30T13:26:45.471Z,11.00
2022-11-30T13:29:08.152Z,11.43
2022-11-30T13:31:23.709Z,10.95
2022-11-30T13:33:51.204Z,11.48
2022-11-30T13:35:58.390Z,9.73
2022-11-30T13:40:43.059Z,10.68
2022-11-30T13:42:51.912Z,9.88
2022-11-30T13:44:59.262Z,11.13
2022-11-30T13:47:09.934Z,10.20
2022-11-30T13:49:24.643Z,10.25
2022-11-30T13:51:43.496Z,9.90
2022-11-30T13:53:50.465Z,9.77
2022-11-30T13:56:04.508Z,10.35
2022-11-30T13:58:13.690Z,9.55
2022-11-30T14:00:49.263Z,9.88
2022-11-30T14:02:59.384Z,9.68
2022-11-30T14:05:39.089Z,9.75
2022-11-30T14:07:48.779Z,10.27
2022-11-30T14:10:03.312Z,10.15
2022-11-30T14:12:42.205Z,9.27
2022-11-30T14:14:50.711Z,9.55
2022-11-30T14:16:58.359Z,9.10
2022-11-30T14:19:09.938Z,9.85
2022-11-30T14:21:25.421Z,10.48
2022-11-30T14:23:40.241Z,11.68
2022-11-30T14:25:52.584Z,11.57
2022-11-30T14:30:23.963Z,11.00
2022-11-30T14:32:38.951Z,11.02
2022-11-30T14:34:51.208Z,9.85
2022-11-30T14:37:03.771Z,11.57
2022-11-30T14:39:31.121Z,11.20
2022-11-30T14:41:38.352Z,9.90
2022-11-30T14:44:00.283Z,10.10
2022-11-30T14:46:13.100Z,9.65
2022-11-30T14:48:23.346Z,10.32
2022-11-30T14:50:32.272Z,10.40
2022-11-30T14:52:55.630Z,10.63
2022-11-30T14:55:15.973Z,10.27
2022-11-30T14:57:31.088Z,9.98
2022-11-30T14:59:49.250Z,9.57
2022-11-30T15:02:00.595Z,9.68
2022-11-30T15:04:13.427Z,10.25
2022-11-30T15:06:23.622Z,10.43
2022-11-30T15:08:36.788Z,9.90
2022-11-30T15:10:44.470Z,10.07
2022-11-30T15:12:51.919Z,10.52
2022-11-30T15:15:21.431Z,10.57
2022-11-30T15:17:28.838Z,11.02
2022-11-30T15:19:36.971Z,10.18
2022-11-30T15:21:51.658Z,10.65
2022-11-30T15:24:00.442Z,10.23
2022-11-30T15:26:15.363Z,10.57
2022-11-30T15:28:26.172Z,10.07
2022-11-30T15:30:34.129Z,10.20
2022-11-30T15:32:41.357Z,11.38
2022-11-30T15:34:56.244Z,10.88
2022-11-30T15:37:06.630Z,11.93
2022-11-30T15:39:22.005Z,11.30
2022-11-30T15:41:30.004Z,10.45
2022-11-30T15:43:40.134Z,11.20
2022-11-30T15:45:56.655Z,11.13
2022-11-30T15:48:05.333Z,10.30
2022-11-30T15:50:38.718Z,11.00
2022-11-30T15:52:53.834Z,9.95
2022-11-30T15:55:04.449Z,10.68
2022-11-30T15:57:11.428Z,12.93
2022-11-30T15:59:27.518Z,13.93
2022-11-30T16:01:35.422Z,11.52
2022-11-30T16:04:07.029Z,12.18
2022-11-30T16:06:22.600Z,12.70
2022-11-30T16:08:31.777Z,11.98
2022-11-30T16:10:40.290Z,10.98
2022-11-30T16:12:47.982Z,11.65
2022-11-30T16:14:55.370Z,11.40
2022-11-30T16:17:07.292Z,11.23
2022-11-30T16:19:16.443Z,11.65
2022-11-30T16:21:24.145Z,11.68
2022-11-30T16:23:36.483Z,12.25
2022-11-30T16:25:44.078Z,12.55
2022-11-30T16:27:51.724Z,11.98
2022-11-30T16:29:59.520Z,12.30
2022-11-30T16:32:06.703Z,11.93
2022-11-30T16:34:15.590Z,12.85
2022-11-30T16:36:23.978Z,13.05
2022-11-30T16:38:35.666Z,13.13
2022-11-30T16:40:42.891Z,12.50
2022-11-30T16:42:51.203Z,11.70
2022-11-30T16:44:58.532Z,11.57
2022-11-30T16:47:05.357Z,11.88
2022-11-30T16:49:12.479Z,12.40
2022-11-30T16:51:22.433Z,12.45
2022-11-30T16:53:29.666Z,12.70
2022-11-30T16:55:39.990Z,13.55
2022-11-30T16:57:47.049Z,11.82
2022-11-30T16:59:53.771Z,13.05
2022-11-30T17:02:00.946Z,11.18
2022-11-30T17:04:14.487Z,11.15
2022-11-30T17:06:23.710Z,11.40
2022-11-30T17:08:30.483Z,10.68
2022-11-30T17:10:40.123Z,10.38
2022-11-30T17:12:46.952Z,10.15
2022-11-30T17:14:54.129Z,9.50
2022-11-30T17:17:03.873Z,9.75
2022-11-30T17:19:11.203Z,9.43
2022-11-30T17:21:21.003Z,9.32
2022-11-30T17:23:28.162Z,9.40
2022-11-30T17:25:35.258Z,8.75
2022-11-30T17:27:44.077Z,9.30
2022-11-30T17:29:50.828Z,8.70
2022-11-30T17:31:57.929Z,8.00
2022-11-30T17:34:04.753Z,8.23
2022-11-30T17:36:14.085Z,8.00
2022-11-30T17:38:21.048Z,8.60
2022-11-30T17:40:28.295Z,8.27
2022-11-30T17:42:35.220Z,8.25
2022-11-30T17:44:43.987Z,7.93
2022-11-30T17:46:50.606Z,7.35
2022-11-30T17:48:58.699Z,7.97
2022-11-30T17:51:05.800Z,7.13
2022-11-30T17:53:17.960Z,7.00
2022-11-30T17:55:25.181Z,6.80
2022-11-30T17:57:32.212Z,7.15
2022-11-30T17:59:39.013Z,7.25
2022-11-30T18:01:48.014Z,7.60
2022-11-30T18:03:55.791Z,6.90
2022-11-30T18:06:04.510Z,6.57
2022-11-30T18:08:11.623Z,6.35
2022-11-30T18:10:18.667Z,5.95
2022-11-30T18:12:25.593Z,6.40
2022-11-30T18:14:32.774Z,6.20
2022-11-30T18:16:40.395Z,6.72
2022-11-30T18:18:49.213Z,5.97
2022-11-30T18:20:56.470Z,6.40
2022-11-30T18:23:03.533Z,6.32
2022-11-30T18:25:11.218Z,6.40
2022-11-30T18:27:18.150Z,5.88
2022-11-30T18:29:24.863Z,5.72
2022-11-30T18:31:33.299Z,6.07
2022-11-30T18:33:40.737Z,5.65
2022-11-30T18:35:49.250Z,6.22
2022-11-30T18:37:56.317Z,5.95
2022-11-30T18:40:03.615Z,6.45
2022-11-30T18:42:10.320Z,5.97
2022-11-30T18:44:17.243Z,6.00
2022-11-30T18:46:24.184Z,5.65
2022-11-30T18:48:31.250Z,6.00
2022-11-30T18:50:38.327Z,6.18
2022-11-30T18:52:46.694Z,6.22
2022-11-30T18:54:53.721Z,5.93
2022-11-30T18:57:00.335Z,5.70
2022-11-30T18:59:08.796Z,5.43
2022-11-30T19:01:17.525Z,5.95
2022-11-30T19:03:24.454Z,6.00
2022-11-30T19:05:37.613Z,6.50
2022-11-30T19:07:46.407Z,6.20
2022-11-30T19:09:53.058Z,5.68
2022-11-30T19:12:01.148Z,5.60
2022-11-30T19:14:08.001Z,5.88
2022-11-30T19:16:16.422Z,5.93
2022-11-30T19:18:23.458Z,6.30
2022-11-30T19:20:30.485Z,5.50
2022-11-30T19:22:37.281Z,5.82
2022-11-30T19:24:46.101Z,5.55
2022-11-30T19:26:53.060Z,5.88
2022-11-30T19:29:01.167Z,5.47
2022-11-30T19:31:11.925Z,5.70
2022-11-30T19:33:18.872Z,6.10
2022-11-30T19:35:26.209Z,6.20
2022-11-30T19:37:32.979Z,5.78
2022-11-30T19:39:40.418Z,5.75
2022-11-30T19:41:49.031Z,5.68
2022-11-30T19:44:03.260Z,6.15
2022-11-30T19:46:12.120Z,5.18
2022-11-30T19:48:19.165Z,5.68
2022-11-30T19:50:26.311Z,5.60
2022-11-30T19:52:33.753Z,5.78
2022-11-30T19:54:40.621Z,5.72
2022-11-30T19:56:49.185Z,6.30
2022-11-30T19:58:58.751Z,5.47
2022-11-30T20:01:14.949Z,5.70
2022-11-30T20:03:21.945Z,5.80
2022-11-30T20:05:29.334Z,6.22
2022-11-30T20:07:36.025Z,5.88
2022-11-30T20:09:43.284Z,5.35
2022-11-30T20:11:51.626Z,5.68
2022-11-30T20:13:59.330Z,5.75
2022-11-30T20:16:11.046Z,6.18
2022-11-30T20:18:18.244Z,6.30
2022-11-30T20:20:24.927Z,6.00
2022-11-30T20:22:32.108Z,6.00
2022-11-30T20:24:39.134Z,5.95
2022-11-30T20:26:46.970Z,6.05
2022-11-30T20:28:56.175Z,5.72
2022-11-30T20:31:06.401Z,6.28
2022-11-30T20:33:13.040Z,6.50
2022-11-30T20:35:20.472Z,5.53
2022-11-30T20:37:27.243Z,5.47
2022-11-30T20:39:34.423Z,5.80
2022-11-30T20:41:41.203Z,6.13
2022-11-30T20:43:48.536Z,6.13
2022-11-30T20:45:57.141Z,6.18
2022-11-30T20:48:04.328Z,5.88
2022-11-30T20:50:11.974Z,5.90
2022-11-30T20:52:19.358Z,5.45
2022-11-30T20:54:26.232Z,6.03
2022-11-30T20:56:33.364Z,6.28
2022-11-30T20:58:40.185Z,5.90
2022-11-30T21:00:47.266Z,6.10
2022-11-30T21:02:55.937Z,5.70
2022-11-30T21:05:02.960Z,6.07
2022-11-30T21:07:10.037Z,5.75
2022-11-30T21:09:17.530Z,6.10
2022-11-30T21:11:25.075Z,5.90
2022-11-30T21:13:32.506Z,6.22
2022-11-30T21:15:39.477Z,5.78
2022-11-30T21:17:46.919Z,5.65
2022-11-30T21:19:55.330Z,5.60
2022-11-30T21:22:02.358Z,5.68
2022-11-30T21:24:12.202Z,5.75
2022-11-30T21:26:21.072Z,6.38
2022-11-30T21:28:27.845Z,5.45
2022-11-30T21:30:35.028Z,6.10
2022-11-30T21:32:41.900Z,6.13
2022-11-30T21:34:49.507Z,6.15
2022-11-30T21:36:58.311Z,6.05
2022-11-30T21:39:08.259Z,6.07
2022-11-30T21:41:16.669Z,6.38
2022-11-30T21:43:23.596Z,5.88
2022-11-30T21:45:30.469Z,6.30
2022-11-30T21:47:37.651Z,5.97
2022-11-30T21:49:44.423Z,6.60
2022-11-30T21:51:51.503Z,7.03
2022-11-30T21:54:01.706Z,6.43
2022-11-30T21:56:13.545Z,6.78
2022-11-30T21:58:20.471Z,6.38
2022-11-30T22:00:27.818Z,6.60
2022-11-30T22:02:35.553Z,6.22
2022-11-30T22:04:43.142Z,6.72
2022-11-30T22:06:50.016Z,6.97
2022-11-30T22:08:59.094Z,7.65
2022-11-30T22:11:06.941Z,6.35
2022-11-30T22:13:14.582Z,7.38
2022-11-30T22:15:21.612Z,7.32
2022-11-30T22:17:28.690Z,8.52
2022-11-30T22:19:35.565Z,7.57
2022-11-30T22:21:48.246Z,7.40
2022-11-30T22:23:59.860Z,7.25
2022-11-30T22:26:15.131Z,7.47
2022-11-30T22:28:21.904Z,7.60
2022-11-30T22:30:29.293Z,7.50
2022-11-30T22:32:39.530Z,7.38
2022-11-30T22:34:49.166Z,8.25
2022-11-30T22:36:55.731Z,8.00
2022-11-30T22:39:07.131Z,8.32
2022-11-30T22:41:15.438Z,8.90
2022-11-30T22:43:22.467Z,8.20
2022-11-30T22:45:29.340Z,8.20
2022-11-30T22:47:36.421Z,8.30
2022-11-30T22:49:43.296Z,8.50
2022-11-30T22:51:50.620Z,8.63
2022-11-30T22:53:58.066Z,7.88
2022-11-30T22:56:09.061Z,8.43
2022-11-30T22:58:15.747Z,8.88
2022-11-30T23:00:23.247Z,8.40
2022-11-30T23:02:30.167Z,8.00
2022-11-30T23:04:38.020Z,8.63
2022-11-30T23:06:46.175Z,8.35
2022-11-30T23:08:54.430Z,8.73
2022-11-30T23:11:01.717Z,8.50
2022-11-30T23:13:10.534Z,8.82
2022-11-30T23:15:17.516Z,8.88
2022-11-30T23:17:24.744Z,9.07
2022-11-30T23:19:31.671Z,8.65
2022-11-30T23:21:41.965Z,8.27
2022-11-30T23:23:49.619Z,9.52
2022-11-30T23:25:56.696Z,9.00
2022-11-30T23:28:03.521Z,9.90
2022-11-30T23:30:13.314Z,9.98
2022-11-30T23:32:20.231Z,9.70
2022-11-30T23:34:27.215Z,9.80
2022-11-30T23:36:34.040Z,8.80
2022-11-30T23:38:41.527Z,9.55
2022-11-30T23:40:48.862Z,10.43
2022-11-30T23:42:56.249Z,9.75
2022-11-30T23:45:02.969Z,9.88
2022-11-30T23:47:16.793Z,8.95
2022-11-30T23:49:25.064Z,9.55
2022-11-30T23:51:32.451Z,9.48
2022-11-30T23:53:39.226Z,9.07
2022-11-30T23:55:46.455Z,9.85
2022-11-30T23:57:54.099Z,9.95
